<?xml version='1.0' encoding='UTF-8'?><gpx version="1.1" creator="JPX - https://github.com/jenetics/jpx" xmlns="http://www.topografix.com/GPX/1/1"><trk><trkseg><trkpt lat="44.4275753" lon="10.9241642"><ele>166.0</ele><time>2026-03-22T08:53:31.052Z</time></trkpt><trkpt lat="44.4260508" lon="10.9250788"><ele>169.0</ele><time>2026-03-22T08:54:48.698Z</time></trkpt><trkpt lat="44.427088" lon="10.923943"><ele>179.0</ele><time>2026-03-22T08:55:18.177Z</time></trkpt><trkpt lat="44.4236498" lon="10.9228937"><ele>243.0</ele><time>2026-03-22T08:55:39.079Z</time></trkpt><trkpt lat="44.4206337" lon="10.9306981"><ele>189.0</ele><time>2026-03-22T08:56:03.046Z</time></trkpt><trkpt lat="44.4242249" lon="10.9223522"><ele>243.0</ele><time>2026-03-22T08:56:16.974Z</time></trkpt><trkpt lat="44.4206434" lon="10.9306984"><ele>179.0</ele><time>2026-03-22T08:56:38.065Z</time></trkpt><trkpt lat="44.4234574" lon="10.9230074"><ele>171.0</ele><time>2026-03-22T08:58:12.153Z</time></trkpt><trkpt lat="44.4168922" lon="10.9217859"><ele>189.0</ele><time>2026-03-22T08:58:34.114Z</time></trkpt><trkpt lat="44.4242569" lon="10.9223528"><ele>179.0</ele><time>2026-03-22T09:00:07.057Z</time></trkpt><trkpt lat="44.4232448" lon="10.9227923"><ele>203.0</ele><time>2026-03-22T09:00:20.018Z</time></trkpt><trkpt lat="44.4129201" lon="10.9204109"><ele>215.0</ele><time>2026-03-22T09:00:27.091Z</time></trkpt><trkpt lat="44.4124258" lon="10.9198706"><ele>209.0</ele><time>2026-03-22T09:00:33.516Z</time></trkpt><trkpt lat="44.4127209" lon="10.9203374"><ele>203.0</ele><time>2026-03-22T09:00:39.924Z</time></trkpt><trkpt lat="44.412846" lon="10.9207499"><ele>200.5</ele><time>2026-03-22T09:00:46.409Z</time></trkpt><trkpt lat="44.4127614" lon="10.9212074"><ele>198.0</ele><time>2026-03-22T09:00:52.832Z</time></trkpt><trkpt lat="44.4242581" lon="10.9238283"><ele>198.0</ele><time>2026-03-22T09:01:05.711Z</time></trkpt><trkpt lat="44.412737" lon="10.9210729"><ele>215.0</ele><time>2026-03-22T09:01:38.124Z</time></trkpt><trkpt lat="44.4125507" lon="10.9199706"><ele>189.0</ele><time>2026-03-22T09:01:51.079Z</time></trkpt><trkpt lat="44.4155416" lon="10.9192215"><ele>171.0</ele><time>2026-03-22T09:01:57.645Z</time></trkpt><trkpt lat="44.41689" lon="10.921776"><ele>198.0</ele><time>2026-03-22T09:02:17.725Z</time></trkpt><trkpt lat="44.4115343" lon="10.9211611"><ele>171.0</ele><time>2026-03-22T09:02:31.091Z</time></trkpt><trkpt lat="44.4168926" lon="10.9217857"><ele>198.0</ele><time>2026-03-22T09:02:46.145Z</time></trkpt><trkpt lat="44.4115337" lon="10.9212706"><ele>198.0</ele><time>2026-03-22T09:02:53.144Z</time></trkpt><trkpt lat="44.4114498" lon="10.9215373"><ele>198.0</ele><time>2026-03-22T09:03:00.099Z</time></trkpt><trkpt lat="44.4168852" lon="10.9217794"><ele>194.0</ele><time>2026-03-22T09:03:07.086Z</time></trkpt><trkpt lat="44.4078662" lon="10.9205183"><ele>188.0</ele><time>2026-03-22T09:03:21.08Z</time></trkpt><trkpt lat="44.4040867" lon="10.9205624"><ele>267.0</ele><time>2026-03-22T09:03:28.06Z</time></trkpt><trkpt lat="44.4009788" lon="10.928363"><ele>261.0</ele><time>2026-03-22T09:05:07.174Z</time></trkpt><trkpt lat="44.399456" lon="10.9325048"><ele>319.0</ele><time>2026-03-22T09:05:56.193Z</time></trkpt><trkpt lat="44.3959652" lon="10.9432631"><ele>300.0</ele><time>2026-03-22T09:07:31.09Z</time></trkpt><trkpt lat="44.3939878" lon="10.9442919"><ele>314.0</ele><time>2026-03-22T09:08:04.22Z</time></trkpt><trkpt lat="44.3928554" lon="10.9452835"><ele>377.0</ele><time>2026-03-22T09:08:11.099Z</time></trkpt><trkpt lat="44.3899137" lon="10.940946"><ele>459.0</ele><time>2026-03-22T09:09:57.655Z</time></trkpt><trkpt lat="44.385062" lon="10.9376477"><ele>382.0</ele><time>2026-03-22T09:12:18.183Z</time></trkpt><trkpt lat="44.373329" lon="10.9338007"><ele>201.0</ele><time>2026-03-22T09:33:17.085Z</time></trkpt><trkpt lat="44.3835408" lon="10.9157854"><ele>206.0</ele><time>2026-03-22T09:36:51.104Z</time></trkpt><trkpt lat="44.3706554" lon="10.9157899"><ele>206.0</ele><time>2026-03-22T09:39:12.158Z</time></trkpt><trkpt lat="44.3709113" lon="10.9156126"><ele>206.0</ele><time>2026-03-22T09:39:19.074Z</time></trkpt><trkpt lat="44.3592101" lon="10.9195264"><ele>213.0</ele><time>2026-03-22T09:40:06.1Z</time></trkpt><trkpt lat="44.3588986" lon="10.9196546"><ele>220.0</ele><time>2026-03-22T09:40:16.288Z</time></trkpt><trkpt lat="44.3578393" lon="10.9214119"><ele>592.0</ele><time>2026-03-22T09:40:23.028Z</time></trkpt><trkpt lat="44.3664687" lon="10.9447652"><ele>229.0</ele><time>2026-03-22T09:40:30.063Z</time></trkpt><trkpt lat="44.3540246" lon="10.9238794"><ele>242.0</ele><time>2026-03-22T09:40:46.075Z</time></trkpt><trkpt lat="44.3343551" lon="10.9281681"><ele>242.0</ele><time>2026-03-22T09:42:45.076Z</time></trkpt><trkpt lat="44.3343042" lon="10.9280806"><ele>242.0</ele><time>2026-03-22T09:42:53.133Z</time></trkpt><trkpt lat="44.3208995" lon="10.9247674"><ele>349.0</ele><time>2026-03-22T09:44:03.136Z</time></trkpt><trkpt lat="44.2939496" lon="10.8753174"><ele>350.0</ele><time>2026-03-22T09:55:14.205Z</time></trkpt><trkpt lat="44.2887111" lon="10.8770942"><ele>566.0</ele><time>2026-03-22T09:56:45.049Z</time></trkpt><trkpt lat="44.2798107" lon="10.8440947"><ele>853.0</ele><time>2026-03-22T10:28:21.029Z</time></trkpt><trkpt lat="44.2970182" lon="10.8305194"><ele>850.0</ele><time>2026-03-22T10:34:18.107Z</time></trkpt><trkpt lat="44.2981338" lon="10.8291382"><ele>850.0</ele><time>2026-03-22T10:34:25.208Z</time></trkpt><trkpt lat="44.2982498" lon="10.8289206"><ele>850.0</ele><time>2026-03-22T10:34:33.128Z</time></trkpt><trkpt lat="44.2982796" lon="10.8277042"><ele>839.0</ele><time>2026-03-22T10:34:40.027Z</time></trkpt><trkpt lat="44.2991092" lon="10.8285387"><ele>796.0</ele><time>2026-03-22T10:34:47.996Z</time></trkpt><trkpt lat="44.3029347" lon="10.8324612"><ele>781.0</ele><time>2026-03-22T10:35:38.997Z</time></trkpt><trkpt lat="44.3034642" lon="10.8309279"><ele>784.0</ele><time>2026-03-22T10:36:00.065Z</time></trkpt><trkpt lat="44.303852" lon="10.8321305"><ele>763.0</ele><time>2026-03-22T10:36:07.114Z</time></trkpt><trkpt lat="44.3047696" lon="10.8331848"><ele>758.0</ele><time>2026-03-22T10:36:14.1Z</time></trkpt><trkpt lat="44.3055403" lon="10.8335991"><ele>757.0</ele><time>2026-03-22T10:36:21.127Z</time></trkpt><trkpt lat="44.3063487" lon="10.8337969"><ele>764.0</ele><time>2026-03-22T10:36:29.119Z</time></trkpt><trkpt lat="44.3075258" lon="10.8339449"><ele>765.0</ele><time>2026-03-22T10:36:36.055Z</time></trkpt><trkpt lat="44.3084688" lon="10.8340177"><ele>747.0</ele><time>2026-03-22T10:36:42.99Z</time></trkpt><trkpt lat="44.3098556" lon="10.8361486"><ele>720.0</ele><time>2026-03-22T10:36:50.037Z</time></trkpt><trkpt lat="44.31077" lon="10.8286069"><ele>719.5</ele><time>2026-03-22T10:37:18.192Z</time></trkpt><trkpt lat="44.3110537" lon="10.8284447"><ele>719.0</ele><time>2026-03-22T10:37:25.194Z</time></trkpt><trkpt lat="44.3118138" lon="10.8282418"><ele>715.0</ele><time>2026-03-22T10:37:32.238Z</time></trkpt><trkpt lat="44.3124045" lon="10.8280235"><ele>714.5</ele><time>2026-03-22T10:37:39.246Z</time></trkpt><trkpt lat="44.3121827" lon="10.8281761"><ele>714.0</ele><time>2026-03-22T10:37:45.753Z</time></trkpt><trkpt lat="44.3121914" lon="10.8278862"><ele>712.0</ele><time>2026-03-22T10:37:52.369Z</time></trkpt><trkpt lat="44.3117467" lon="10.8266296"><ele>711.0</ele><time>2026-03-22T10:37:58.803Z</time></trkpt><trkpt lat="44.311314" lon="10.8263273"><ele>709.0</ele><time>2026-03-22T10:38:12.889Z</time></trkpt><trkpt lat="44.3113911" lon="10.8248067"><ele>738.0</ele><time>2026-03-22T10:38:19.951Z</time></trkpt><trkpt lat="44.3097257" lon="10.8207997"><ele>712.0</ele><time>2026-03-22T10:38:26.956Z</time></trkpt><trkpt lat="44.3073894" lon="10.8204083"><ele>758.0</ele><time>2026-03-22T10:38:56.104Z</time></trkpt><trkpt lat="44.3080385" lon="10.8127015"><ele>758.0</ele><time>2026-03-22T10:39:37.039Z</time></trkpt><trkpt lat="44.3084664" lon="10.8115086"><ele>755.0</ele><time>2026-03-22T10:39:45.192Z</time></trkpt><trkpt lat="44.3090285" lon="10.811784"><ele>712.0</ele><time>2026-03-22T10:39:53.014Z</time></trkpt><trkpt lat="44.3171057" lon="10.8081984"><ele>721.0</ele><time>2026-03-22T10:41:13.987Z</time></trkpt><trkpt lat="44.3159989" lon="10.8048095"><ele>715.0</ele><time>2026-03-22T10:41:42.003Z</time></trkpt><trkpt lat="44.3150363" lon="10.802449"><ele>709.0</ele><time>2026-03-22T10:41:49.097Z</time></trkpt><trkpt lat="44.315622" lon="10.79926"><ele>715.0</ele><time>2026-03-22T10:42:18.013Z</time></trkpt><trkpt lat="44.3147942" lon="10.8011923"><ele>720.0</ele><time>2026-03-22T10:42:25.155Z</time></trkpt><trkpt lat="44.3131536" lon="10.7951325"><ele>712.0</ele><time>2026-03-22T10:42:39.194Z</time></trkpt><trkpt lat="44.311831" lon="10.7937986"><ele>712.5</ele><time>2026-03-22T10:42:46.067Z</time></trkpt><trkpt lat="44.3115352" lon="10.7934264"><ele>713.0</ele><time>2026-03-22T10:42:52.973Z</time></trkpt><trkpt lat="44.3118849" lon="10.7923218"><ele>734.0</ele><time>2026-03-22T10:42:59.982Z</time></trkpt><trkpt lat="44.3109753" lon="10.7882299"><ele>746.0</ele><time>2026-03-22T10:43:06.973Z</time></trkpt><trkpt lat="44.3115638" lon="10.7809232"><ele>747.0</ele><time>2026-03-22T10:43:49.032Z</time></trkpt><trkpt lat="44.3112624" lon="10.779445"><ele>745.0</ele><time>2026-03-22T10:43:56.013Z</time></trkpt><trkpt lat="44.3113982" lon="10.7780357"><ele>739.0</ele><time>2026-03-22T10:44:03.103Z</time></trkpt><trkpt lat="44.3118798" lon="10.7759758"><ele>739.0</ele><time>2026-03-22T10:44:10.069Z</time></trkpt><trkpt lat="44.3119494" lon="10.775896"><ele>739.0</ele><time>2026-03-22T10:44:16.58Z</time></trkpt><trkpt lat="44.311837" lon="10.7734714"><ele>741.0</ele><time>2026-03-22T10:44:23.117Z</time></trkpt><trkpt lat="44.3117335" lon="10.7714535"><ele>741.0</ele><time>2026-03-22T10:44:29.998Z</time></trkpt><trkpt lat="44.3118421" lon="10.7711521"><ele>741.0</ele><time>2026-03-22T10:44:37.014Z</time></trkpt><trkpt lat="44.3121501" lon="10.7691487"><ele>757.0</ele><time>2026-03-22T10:44:44.186Z</time></trkpt><trkpt lat="44.3115652" lon="10.7676502"><ele>761.0</ele><time>2026-03-22T10:44:51.095Z</time></trkpt><trkpt lat="44.3115297" lon="10.7665113"><ele>763.0</ele><time>2026-03-22T10:44:58.083Z</time></trkpt><trkpt lat="44.3119723" lon="10.7659104"><ele>768.0</ele><time>2026-03-22T10:45:05.07Z</time></trkpt><trkpt lat="44.3128309" lon="10.7639223"><ele>790.0</ele><time>2026-03-22T10:45:12.134Z</time></trkpt><trkpt lat="44.3126523" lon="10.7618221"><ele>800.0</ele><time>2026-03-22T10:45:20.022Z</time></trkpt><trkpt lat="44.3127547" lon="10.7589631"><ele>800.0</ele><time>2026-03-22T10:45:48.079Z</time></trkpt><trkpt lat="44.3129511" lon="10.7586664"><ele>800.0</ele><time>2026-03-22T10:45:55.041Z</time></trkpt><trkpt lat="44.3124935" lon="10.7576101"><ele>820.0</ele><time>2026-03-22T10:46:02.006Z</time></trkpt><trkpt lat="44.3114177" lon="10.7543255"><ele>810.0</ele><time>2026-03-22T10:46:15.981Z</time></trkpt><trkpt lat="44.3124922" lon="10.7576017"><ele>873.0</ele><time>2026-03-22T10:46:58.994Z</time></trkpt><trkpt lat="44.3110652" lon="10.7462674"><ele>872.0</ele><time>2026-03-22T10:47:20.03Z</time></trkpt><trkpt lat="44.3109934" lon="10.7419761"><ele>872.0</ele><time>2026-03-22T10:47:27.011Z</time></trkpt><trkpt lat="44.3111806" lon="10.74225"><ele>872.0</ele><time>2026-03-22T10:47:34.024Z</time></trkpt><trkpt lat="44.3108207" lon="10.7416832"><ele>879.0</ele><time>2026-03-22T10:47:41.09Z</time></trkpt><trkpt lat="44.3098914" lon="10.7407679"><ele>868.0</ele><time>2026-03-22T10:47:48.177Z</time></trkpt><trkpt lat="44.3093378" lon="10.7400395"><ele>861.0</ele><time>2026-03-22T10:47:55.114Z</time></trkpt><trkpt lat="44.3089174" lon="10.7390492"><ele>850.0</ele><time>2026-03-22T10:48:02.097Z</time></trkpt><trkpt lat="44.3081846" lon="10.7372641"><ele>849.0</ele><time>2026-03-22T10:48:09.153Z</time></trkpt><trkpt lat="44.3079471" lon="10.7358665"><ele>847.0</ele><time>2026-03-22T10:48:16.161Z</time></trkpt><trkpt lat="44.3077235" lon="10.7345881"><ele>845.0</ele><time>2026-03-22T10:48:23.12Z</time></trkpt><trkpt lat="44.3076918" lon="10.7332565"><ele>835.0</ele><time>2026-03-22T10:48:30.137Z</time></trkpt><trkpt lat="44.3072263" lon="10.7320311"><ele>835.0</ele><time>2026-03-22T10:48:37.14Z</time></trkpt><trkpt lat="44.3071104" lon="10.7317673"><ele>839.0</ele><time>2026-03-22T10:48:44.181Z</time></trkpt><trkpt lat="44.307103" lon="10.7315223"><ele>839.0</ele><time>2026-03-22T10:48:50.667Z</time></trkpt></trkseg></trk></gpx>